Flight Track Log - Related Links

Times and Time Zones

All times are in EDT time to prevent confusion due to time zone crossing. See the JZA8509 flight status page for this flight to view local times or setup timezone preferences in your user account.


Time Position Orientation Groundspeed Altitude Reporting Facility
EDT Latitude Longitude Course Direction KTS MPH feet Rate Location/Type
Thu 05:46:00 AM 48.3500 -89.3167 289° West 160 184 2,100  Level Winnipeg Center
Thu 05:47:00 AM 48.3333 -89.3833 249° West 200 230 5,700 3,100 Climbing Winnipeg Center
Thu 05:48:00 AM 48.3167 -89.4667 253° West 210 242 8,300 2,250 Climbing Winnipeg Center
Thu 05:49:00 AM 48.3595 -89.8306 295° West  Level FlightAware Approximate
Thu 05:49:00 AM 48.3500 -89.5833 293° West 270 311 10,200  Level Winnipeg Center
Thu 05:50:00 AM 48.4049 -89.9784 295° West  Level FlightAware Approximate
Thu 05:50:00 AM 48.3667 -89.6833 284° West 290 334 13,100  Level Winnipeg Center
Thu 05:51:00 AM 48.4421 -90.1312 289° West  Level FlightAware Approximate
Thu 05:51:00 AM 48.4000 -89.8167 291° West 280 322 15,400  Level Winnipeg Center
Thu 05:52:00 AM 48.4333 -89.9333 293° West 300 345 17,600 1,700 Climbing Winnipeg Center
Thu 05:53:00 AM 48.4500 -90.0333 284° West 310 357 18,800 1,400 Climbing Winnipeg Center
Thu 05:54:00 AM 48.4833 -90.1500 293° West 320 368 20,400 1,600 Climbing Winnipeg Center
Thu 05:55:00 AM 48.5000 -90.3000 280° West 320 368 22,000 1,500 Climbing Winnipeg Center
Thu 05:56:00 AM 48.5333 -90.4167 293° West 330 380 23,400 1,500 Climbing Winnipeg Center
Thu 05:57:00 AM 48.5500 -90.5667 280° West 340 391 25,000 1,300 Climbing Winnipeg Center
Thu 05:58:00 AM 48.6000 -90.7167 297° West 340 391 26,000 1,050 Climbing Winnipeg Center
Thu 05:59:00 AM 48.6167 -90.8667 280° West 350 403 27,100 1,000 Climbing Winnipeg Center
Thu 06:00:00 AM 48.6500 -90.9833 293° West 360 414 28,000 950 Climbing Winnipeg Center
Thu 06:01:00 AM 48.6833 -91.1333 289° West 360 414 29,000 900 Climbing Winnipeg Center
Thu 06:02:00 AM 48.7167 -91.2833 289° West 370 426 29,800 750 Climbing Winnipeg Center
Thu 06:03:00 AM 48.7333 -91.4333 280° West 380 437 30,500 950 Climbing Winnipeg Center
Thu 06:04:00 AM 48.7833 -91.5833 297° West 370 426 31,700 1,100 Climbing Winnipeg Center
Thu 06:05:00 AM 48.8000 -91.7333 280° West 370 426 32,700 1,100 Climbing Winnipeg Center
Thu 06:06:00 AM 48.8500 -91.9000 295° West 370 426 33,900 650 Climbing Winnipeg Center
Thu 06:07:00 AM 48.8667 -92.0333 281° West 360 414 34,000 50 Climbing Winnipeg Center
Thu 06:08:00 AM 48.8833 -92.1833 280° West 370 426 34,000  Level Winnipeg Center
Thu 06:09:00 AM 48.9333 -92.3500 295° West 390 449 34,000  Level Winnipeg Center
Thu 06:10:00 AM 48.9500 -92.5167 279° West 390 449 34,000  Level Winnipeg Center
Thu 06:11:00 AM 48.9833 -92.6833 287° West 400 460 34,000  Level Winnipeg Center
Thu 06:12:00 AM 49.0167 -92.8333 289° West 400 460 34,000  Level Winnipeg Center
Thu 06:13:00 AM 49.0333 -93.0167 278° West 400 460 34,000  Level Winnipeg Center
Thu 06:14:00 AM 49.0833 -93.1667 297° West 400 460 34,000  Level Winnipeg Center
Thu 06:15:00 AM 49.1000 -93.3167 280° West 390 449 34,000  Level Winnipeg Center
Thu 06:16:00 AM 49.1333 -93.4833 287° West 390 449 34,000  Level Winnipeg Center
Thu 06:17:00 AM 49.1667 -93.6333 289° West 390 449 34,000  Level Winnipeg Center
Thu 06:18:00 AM 49.2000 -93.8167 286° West 390 449 34,000  Level Winnipeg Center
Thu 06:19:00 AM 49.2167 -93.9667 280° West 380 437 34,000  Level Winnipeg Center
Thu 06:20:00 AM 49.2333 -94.1167 280° West 380 437 34,000  Level Winnipeg Center
Thu 06:21:00 AM 49.2833 -94.2667 297° West 380 437 34,000  Level Winnipeg Center
Thu 06:22:00 AM 49.3000 -94.4333 279° West 380 437 34,000  Level Winnipeg Center
Thu 06:23:00 AM 49.3333 -94.6000 287° West 380 437 34,000  Level Winnipeg Center
Thu 06:24:00 AM 49.3500 -94.7500 280° West 380 437 34,000  Level Winnipeg Center
Thu 06:25:00 AM 49.3833 -94.9167 287° West 380 437 34,000  Level Winnipeg Center
Thu 06:26:00 AM 49.4167 -95.0667 289° West 380 437 34,000  Level Winnipeg Center
Thu 06:27:00 AM 49.4333 -95.2167 280° West 380 437 34,000 -400 Level Winnipeg Center
Thu 06:28:00 AM 49.4667 -95.3667 289° West 370 426 33,200 -1,600 Descending Winnipeg Center
Thu 06:29:00 AM 49.4833 -95.5167 280° West 380 437 30,800 -2,500 Descending Winnipeg Center
Thu 06:30:00 AM 49.5000 -95.7000 278° West 370 426 28,200 -2,550 Descending Winnipeg Center
Thu 06:31:00 AM 49.5333 -95.8333 291° West 360 414 25,700 -2,550 Descending Winnipeg Center
Thu 06:32:00 AM 49.5667 -95.9833 289° West 350 403 23,100 -2,500 Descending Winnipeg Center
Thu 06:33:00 AM 49.6000 -96.1167 291° West 330 380 20,700 -2,400 Descending Winnipeg Center
Thu 06:34:00 AM 49.6500 -96.2167 308° West 320 368 18,300 -2,150 Descending Winnipeg Center
Thu 06:35:00 AM 49.6833 -96.3500 291° West 310 357 16,400 -2,150 Descending Winnipeg Center
Thu 06:36:00 AM 49.7167 -96.4667 294° West 300 345 14,000 -2,450 Descending Winnipeg Center
Thu 06:37:00 AM 49.7333 -96.6000 281° West 290 334 11,500 -2,100 Descending Winnipeg Center
Thu 06:38:00 AM 49.7167 -96.7000 256° West 270 311 9,800 -1,800 Descending Winnipeg Center
Thu 06:39:00 AM 49.7167 -96.8333 270° West 250 288 7,900 -1,800 Descending Winnipeg Center
Thu 06:40:00 AM 49.7167 -96.9167 270° West 240 276 6,200 -1,750 Descending Winnipeg Center
Thu 06:41:00 AM 49.7167 -97.0167 270° West 240 276 4,400 -1,600 Descending Winnipeg Center
Thu 06:42:00 AM 49.7167 -97.1167 270° West 220 253 3,000 -467 Descending Winnipeg Center
Thu 06:44:00 AM 49.7500 -97.2500 291° West 170 196 3,000 -133 Level Winnipeg Center
Thu 06:45:00 AM 49.8000 -97.2500 360° North 160 184 2,600 -400 Descending Winnipeg Center

Login

Don't have an account? Register now (free) for customized features, flight alerts, and more!